Time;durP1;ratioP1;P1;durP2;ratioP2;P2;SDS_P1;SDS_P2;PMS_P1;PMS_P2;Temp;Humidity;BMP_temperature;BMP_pressure;BME280_temperature;BME280_humidity;BME280_pressure;Samples;Min_cycle;Max_cycle;Signal;HPM_P1;HPM_P2
2021/01/21 00:01:16;;;;;;;;;;;;;;;20.15;40.47;97334.03;3107219;27;115417;-55
2021/01/21 00:02:47;;;;;;;;;;;;;;;20.16;40.29;97332.84;3102246;27;115433;-54
2021/01/21 00:04:19;;;;;;;;;;;;;;;20.17;40.27;97357.66;3107065;28;115334;-54
2021/01/21 00:06:05;;;;;;;;;;;;;;;20.17;40.46;97368.09;3112475;28;115924;-54
2021/01/21 00:07:39;;;;;;;;;;;;;;;20.18;40.53;97378.09;3107529;27;115037;-68
2021/01/21 00:09:21;;;;;;;;;;;;;;;20.15;40.36;97376.88;3103520;27;114621;-54
2021/01/21 00:11:01;;;;;;;;;;;;;;;20.13;40.37;97384.88;3101859;28;115775;-54
2021/01/21 00:12:33;;;;;;;;;;;;;;;20.12;40.17;97396.50;3103987;28;116573;-54
2021/01/21 00:14:06;;;;;;;;;;;;;;;20.07;40.11;97386.44;3094950;28;116122;-54
2021/01/21 00:15:38;;;;;;;;;;;;;;;20.07;40.11;97405.25;3104697;28;116037;-57
2021/01/21 00:17:09;;;;;;;;;;;;;;;20.06;40.19;97420.47;3105392;28;116101;-55
2021/01/21 00:18:41;;;;;;;;;;;;;;;20.04;40.07;97431.25;3106557;28;115914;-56
2021/01/21 00:20:12;;;;;;;;;;;;;;;20.02;40.00;97437.25;3104095;27;115831;-55
2021/01/21 00:21:43;;;;;;;;;;;;;;;20.02;39.85;97456.06;3107266;27;115250;-55
2021/01/21 00:23:14;;;;;;;;;;;;;;;20.00;40.23;97467.66;3104905;28;115752;-55
2021/01/21 00:24:48;;;;;;;;;;;;;;;19.98;40.31;97481.28;3104719;28;114720;-55
2021/01/21 00:26:20;;;;;;;;;;;;;;;19.98;40.50;97479.28;3104274;28;115439;-55
2021/01/21 00:27:51;;;;;;;;;;;;;;;19.95;40.41;97519.25;3101189;28;116423;-54
2021/01/21 00:29:22;;;;;;;;;;;;;;;19.95;40.20;97482.84;3105643;28;116155;-55
2021/01/21 00:30:54;;;;;;;;;;;;;;;19.88;39.29;97491.19;3101199;28;114178;-55
2021/01/21 00:32:25;;;;;;;;;;;;;;;19.89;40.25;97528.44;3091608;28;114189;-55
2021/01/21 00:33:56;;;;;;;;;;;;;;;19.87;40.11;97528.81;3104155;27;114191;-57
2021/01/21 00:35:28;;;;;;;;;;;;;;;19.86;39.87;97499.19;3106862;28;114294;-57
2021/01/21 00:36:59;;;;;;;;;;;;;;;19.86;40.00;97507.56;3106446;27;114814;-56
2021/01/21 00:38:30;;;;;;;;;;;;;;;19.85;40.11;97519.97;3105465;27;114170;-56
2021/01/21 00:40:02;;;;;;;;;;;;;;;19.81;40.03;97512.72;3107671;27;115132;-57
2021/01/21 00:41:33;;;;;;;;;;;;;;;19.80;39.83;97511.94;3109473;28;114494;-56
2021/01/21 00:43:04;;;;;;;;;;;;;;;19.79;40.16;97517.94;3103881;28;114453;-56
2021/01/21 00:44:36;;;;;;;;;;;;;;;19.79;39.82;97521.53;3102191;27;114227;-55
2021/01/21 00:46:07;;;;;;;;;;;;;;;19.80;40.35;97525.97;3105512;28;114302;-55
2021/01/21 00:47:38;;;;;;;;;;;;;;;19.82;40.00;97526.34;3096306;27;114310;-56
2021/01/21 00:49:09;;;;;;;;;;;;;;;19.80;39.97;97527.94;3106665;28;114521;-56
2021/01/21 00:50:40;;;;;;;;;;;;;;;19.76;40.51;97535.53;3106790;27;114503;-55
2021/01/21 00:52:14;;;;;;;;;;;;;;;19.73;40.33;97548.28;3096622;28;115174;-56
2021/01/21 00:53:45;;;;;;;;;;;;;;;19.72;40.25;97543.06;3106275;28;115318;-56
2021/01/21 00:55:17;;;;;;;;;;;;;;;19.72;40.30;97563.47;3103489;28;114981;-56
2021/01/21 00:56:48;;;;;;;;;;;;;;;19.69;40.43;97571.84;3106133;28;115483;-56
2021/01/21 00:58:19;;;;;;;;;;;;;;;19.65;40.46;97576.59;3106626;27;115925;-56
2021/01/21 00:59:50;;;;;;;;;;;;;;;19.64;40.38;97584.19;3110211;27;114623;-56
2021/01/21 01:01:22;;;;;;;;;;;;;;;19.61;40.60;97595.38;3106496;28;114828;-56
2021/01/21 01:02:53;;;;;;;;;;;;;;;19.59;40.48;97583.75;3109110;28;114245;-55
2021/01/21 01:04:24;;;;;;;;;;;;;;;19.57;40.43;97586.94;3106953;28;115841;-55
2021/01/21 01:05:56;;;;;;;;;;;;;;;19.57;40.47;97611.34;3107659;28;115374;-56
2021/01/21 01:07:27;;;;;;;;;;;;;;;19.55;40.48;97611.72;3093977;28;116866;-55
2021/01/21 01:08:58;;;;;;;;;;;;;;;19.54;40.44;97626.88;3104656;28;114249;-56
2021/01/21 01:10:30;;;;;;;;;;;;;;;19.52;40.48;97632.09;3107468;27;115153;-55
2021/01/21 01:12:01;;;;;;;;;;;;;;;19.50;40.31;97640.84;3109522;27;115420;-55
2021/01/21 01:13:32;;;;;;;;;;;;;;;19.47;40.26;97641.63;3109344;27;115784;-55
2021/01/21 01:15:08;;;;;;;;;;;;;;;19.47;40.43;97669.63;3106075;27;115180;-56
2021/01/21 01:16:39;;;;;;;;;;;;;;;19.44;40.26;97661.19;3106429;28;115510;-56
2021/01/21 01:18:10;;;;;;;;;;;;;;;19.43;40.11;97665.97;3095228;28;116413;-55
2021/01/21 01:19:42;;;;;;;;;;;;;;;19.42;40.28;97675.53;3104397;28;116023;-56
2021/01/21 01:21:13;;;;;;;;;;;;;;;19.43;40.34;97704.34;3109549;28;115151;-55
2021/01/21 01:22:48;;;;;;;;;;;;;;;19.42;40.20;97703.53;3106901;28;114572;-55
2021/01/21 01:24:21;;;;;;;;;;;;;;;19.38;40.41;97702.69;3100998;27;116107;-55
2021/01/21 01:25:53;;;;;;;;;;;;;;;19.37;40.45;97703.84;3092696;28;115265;-55
2021/01/21 01:27:24;;;;;;;;;;;;;;;19.37;40.58;97717.03;3100651;28;114897;-56
2021/01/21 01:28:55;;;;;;;;;;;;;;;19.35;40.46;97723.00;3109022;28;115274;-55
2021/01/21 01:30:26;;;;;;;;;;;;;;;19.37;40.51;97739.44;3105026;28;115740;-56
2021/01/21 01:31:57;;;;;;;;;;;;;;;19.34;40.59;97734.59;3094506;28;115915;-55
2021/01/21 01:33:29;;;;;;;;;;;;;;;19.35;40.34;97755.81;3107264;27;114570;-55
2021/01/21 01:35:00;;;;;;;;;;;;;;;19.34;40.38;97754.19;3109245;27;113895;-55
2021/01/21 01:36:42;;;;;;;;;;;;;;;19.32;40.68;97757.38;3110736;28;114603;-56
2021/01/21 01:38:24;;;;;;;;;;;;;;;19.34;40.70;97766.22;3106668;28;114342;-55
2021/01/21 01:40:05;;;;;;;;;;;;;;;19.34;40.79;97768.19;3101519;28;114612;-55
2021/01/21 01:41:50;;;;;;;;;;;;;;;19.30;40.72;97787.75;3102950;27;114939;-55
2021/01/21 01:43:35;;;;;;;;;;;;;;;19.26;40.40;97798.06;3089733;28;114476;-56
2021/01/21 01:45:10;;;;;;;;;;;;;;;19.25;40.30;97801.25;3101237;28;114907;-55
2021/01/21 01:46:54;;;;;;;;;;;;;;;19.22;40.26;97804.78;3102494;28;113903;-56
2021/01/21 01:48:41;;;;;;;;;;;;;;;19.21;40.29;97815.19;3106337;28;114126;-55
2021/01/21 01:50:34;;;;;;;;;;;;;;;19.19;40.50;97831.53;3101961;28;118076;-55
2021/01/21 01:52:11;;;;;;;;;;;;;;;19.17;40.42;97845.09;3108278;28;116689;-55
2021/01/21 01:53:59;;;;;;;;;;;;;;;19.16;40.47;97839.88;3105995;27;117447;-54
2021/01/21 01:55:58;;;;;;;;;;;;;;;19.15;40.69;97843.88;3106729;28;114509;-55
2021/01/21 01:57:57;;;;;;;;;;;;;;;19.15;40.30;97855.88;3113173;27;114170;-55
2021/01/21 01:59:44;;;;;;;;;;;;;;;19.14;40.39;97865.44;3104252;27;114500;-55
2021/01/21 02:01:32;;;;;;;;;;;;;;;19.14;40.32;97879.44;3099529;28;114211;-55
2021/01/21 02:03:04;;;;;;;;;;;;;;;19.14;40.46;97868.25;3098404;28;115116;-55
2021/01/21 02:04:43;;;;;;;;;;;;;;;19.16;40.46;97876.28;3103568;28;116383;-55
2021/01/21 02:06:44;;;;;;;;;;;;;;;19.16;40.54;97895.84;3106786;28;114527;-55
2021/01/21 02:08:34;;;;;;;;;;;;;;;19.14;40.51;97906.59;3107559;28;114049;-55
2021/01/21 02:10:06;;;;;;;;;;;;;;;19.13;40.44;97916.19;3108337;28;114752;-55
2021/01/21 02:12:06;;;;;;;;;;;;;;;19.12;40.38;97914.59;3102523;27;114733;-56
2021/01/21 02:13:59;;;;;;;;;;;;;;;19.08;40.53;97915.31;3104397;28;114887;-55
2021/01/21 02:16:13;;;;;;;;;;;;;;;19.07;40.26;97935.28;3091221;28;114096;-55
2021/01/21 02:18:06;;;;;;;;;;;;;;;19.02;40.34;97925.22;3101606;28;114496;-55
2021/01/21 02:19:52;;;;;;;;;;;;;;;19.02;40.20;97946.78;3103807;28;114227;-55
2021/01/21 02:21:59;;;;;;;;;;;;;;;19.03;40.34;97954.00;3105849;28;114342;-55
2021/01/21 02:24:03;;;;;;;;;;;;;;;19.00;40.23;97961.13;3110621;28;113958;-55
2021/01/21 02:26:25;;;;;;;;;;;;;;;19.02;40.28;97969.97;3101718;27;114526;-55
2021/01/21 02:28:31;;;;;;;;;;;;;;;19.00;40.28;97979.91;3084496;28;116506;-55
2021/01/21 02:30:32;;;;;;;;;;;;;;;19.00;40.13;97985.50;3105885;28;115984;-56
2021/01/21 02:32:51;;;;;;;;;;;;;;;18.99;40.32;97997.88;3100009;28;114301;-55
2021/01/21 02:34:40;;;;;;;;;;;;;;;18.97;40.08;97989.88;3069464;28;114623;-55
2021/01/21 02:36:28;;;;;;;;;;;;;;;18.95;40.18;98009.00;3104291;27;118543;-55
2021/01/21 02:38:17;;;;;;;;;;;;;;;18.97;40.13;98011.44;3102399;27;115620;-55
2021/01/21 02:40:04;;;;;;;;;;;;;;;18.96;40.23;98018.19;3109363;28;114379;-55
2021/01/21 02:41:51;;;;;;;;;;;;;;;18.93;40.00;98025.34;3107822;28;114608;-55
2021/01/21 02:43:40;;;;;;;;;;;;;;;18.95;39.95;98022.97;3102503;28;114779;-76
2021/01/21 02:45:51;;;;;;;;;;;;;;;18.94;40.16;98042.97;3104513;28;114792;-74
2021/01/21 02:47:37;;;;;;;;;;;;;;;18.92;39.91;98043.31;3087280;28;115112;-73
2021/01/21 02:49:28;;;;;;;;;;;;;;;18.91;39.81;98044.50;3103619;28;114974;-73
2021/01/21 02:51:30;;;;;;;;;;;;;;;18.88;39.60;98045.22;3102754;27;114332;-74
2021/01/21 02:53:06;;;;;;;;;;;;;;;18.87;39.83;98057.59;3113639;27;114515;-72
2021/01/21 02:55:03;;;;;;;;;;;;;;;18.90;39.82;98065.25;3108931;28;114260;-73
2021/01/21 02:56:58;;;;;;;;;;;;;;;18.88;39.95;98061.19;3098969;28;114222;-72
2021/01/21 02:58:50;;;;;;;;;;;;;;;18.86;40.01;98058.75;3108099;27;113900;-74
2021/01/21 03:00:24;;;;;;;;;;;;;;;18.86;40.07;98075.53;3105379;27;113693;-72
2021/01/21 03:02:12;;;;;;;;;;;;;;;18.86;40.07;98074.72;3100629;27;114047;-73
2021/01/21 03:04:02;;;;;;;;;;;;;;;18.85;40.22;98079.50;3108947;28;113938;-73
2021/01/21 03:05:40;;;;;;;;;;;;;;;18.84;40.07;98082.69;3095715;28;114395;-71
2021/01/21 03:07:31;;;;;;;;;;;;;;;18.84;40.16;98086.31;3096671;28;113817;-55
2021/01/21 03:09:18;;;;;;;;;;;;;;;18.84;40.25;98096.69;3096474;28;114206;-55
2021/01/21 03:11:17;;;;;;;;;;;;;;;18.83;40.25;98095.88;3102868;27;113925;-55
2021/01/21 03:13:07;;;;;;;;;;;;;;;18.82;40.51;98113.81;3106080;28;114292;-55
2021/01/21 03:14:44;;;;;;;;;;;;;;;18.82;40.21;98102.63;3097080;28;113956;-55
2021/01/21 03:16:23;;;;;;;;;;;;;;;18.80;40.50;98121.78;3106989;28;114188;-54
2021/01/21 03:17:55;;;;;;;;;;;;;;;18.81;40.52;98120.59;3108932;28;114545;-54
2021/01/21 03:19:26;;;;;;;;;;;;;;;18.81;40.54;98120.59;3103153;28;113976;-54
2021/01/21 03:20:57;;;;;;;;;;;;;;;18.81;40.54;98126.19;3110102;28;115168;-54
2021/01/21 03:22:30;;;;;;;;;;;;;;;18.80;40.44;98119.00;3109988;27;120186;-54
2021/01/21 03:24:01;;;;;;;;;;;;;;;18.79;40.36;98122.97;3101894;28;115292;-54
2021/01/21 03:25:32;;;;;;;;;;;;;;;18.79;40.39;98122.97;3102983;28;115097;-71
2021/01/21 03:27:04;;;;;;;;;;;;;;;18.80;40.27;98126.56;3112473;28;115099;-71
2021/01/21 03:28:35;;;;;;;;;;;;;;;18.78;40.35;98128.91;3096664;28;115137;-54
2021/01/21 03:30:07;;;;;;;;;;;;;;;18.77;40.27;98127.28;3097426;28;115155;-54
2021/01/21 03:31:41;;;;;;;;;;;;;;;18.76;40.36;98134.84;3102558;28;114380;-55
2021/01/21 03:33:12;;;;;;;;;;;;;;;18.75;40.33;98136.06;3101091;28;114066;-54
2021/01/21 03:34:44;;;;;;;;;;;;;;;18.75;40.26;98143.63;3111281;28;115208;-55
2021/01/21 03:36:15;;;;;;;;;;;;;;;18.73;40.23;98144.00;3106818;28;114851;-55
2021/01/21 03:37:46;;;;;;;;;;;;;;;18.74;40.37;98150.41;3098731;28;115637;-55
2021/01/21 03:39:17;;;;;;;;;;;;;;;18.72;40.46;98163.91;3089350;28;115237;-55
2021/01/21 03:40:49;;;;;;;;;;;;;;;18.72;40.62;98155.53;3093927;28;115236;-55
2021/01/21 03:42:20;;;;;;;;;;;;;;;18.71;40.51;98168.72;3099513;27;116060;-55
2021/01/21 03:43:51;;;;;;;;;;;;;;;18.68;40.35;98169.44;3102895;28;115877;-55
2021/01/21 03:45:22;;;;;;;;;;;;;;;18.67;40.35;98162.22;3109270;27;115697;-55
2021/01/21 03:46:53;;;;;;;;;;;;;;;18.64;40.49;98166.56;3104708;28;115855;-55
2021/01/21 03:48:25;;;;;;;;;;;;;;;18.65;40.41;98181.34;3088525;28;115946;-69
2021/01/21 03:49:56;;;;;;;;;;;;;;;18.64;40.49;98186.13;3096110;28;115510;-72
2021/01/21 03:51:28;;;;;;;;;;;;;;;18.62;40.48;98182.09;3111204;27;115147;-72
2021/01/21 03:53:00;;;;;;;;;;;;;;;18.62;40.59;98180.09;3110016;27;114454;-72
2021/01/21 03:54:31;;;;;;;;;;;;;;;18.62;40.60;98182.09;3110140;28;114938;-72
2021/01/21 03:56:04;;;;;;;;;;;;;;;18.59;40.47;98194.81;3109753;28;116269;-73
2021/01/21 03:57:35;;;;;;;;;;;;;;;18.61;40.52;98192.47;3099430;28;115883;-72
2021/01/21 03:59:06;;;;;;;;;;;;;;;18.60;40.70;98195.63;3107835;27;114722;-73
2021/01/21 04:00:37;;;;;;;;;;;;;;;18.58;40.63;98206.34;3111253;27;115802;-69
2021/01/21 04:02:08;;;;;;;;;;;;;;;18.58;40.73;98209.13;3101963;28;114758;-69
2021/01/21 04:03:41;;;;;;;;;;;;;;;18.57;40.58;98205.56;3106126;27;113800;-70
2021/01/21 04:05:12;;;;;;;;;;;;;;;18.57;40.54;98211.16;3109631;28;113976;-70
2021/01/21 04:06:43;;;;;;;;;;;;;;;18.56;40.74;98215.09;3111576;28;113879;-71
2021/01/21 04:08:14;;;;;;;;;;;;;;;18.55;40.76;98209.88;3111154;27;113866;-71
2021/01/21 04:09:45;;;;;;;;;;;;;;;18.53;40.89;98213.00;3109880;28;115681;-72
2021/01/21 04:11:17;;;;;;;;;;;;;;;18.54;40.87;98213.84;3100666;28;113900;-71
2021/01/21 04:12:48;;;;;;;;;;;;;;;18.54;40.71;98225.00;3099267;28;113954;-70
2021/01/21 04:14:19;;;;;;;;;;;;;;;18.53;40.67;98223.41;3091002;28;113938;-69
2021/01/21 04:15:50;;;;;;;;;;;;;;;18.52;40.81;98216.16;3105877;27;114453;-69
2021/01/21 04:17:21;;;;;;;;;;;;;;;18.52;40.99;98216.97;3105861;27;113905;-70
2021/01/21 04:18:53;;;;;;;;;;;;;;;18.50;40.98;98221.28;3098058;28;113851;-70
2021/01/21 04:20:24;;;;;;;;;;;;;;;18.49;41.14;98222.47;3110742;28;113894;-68
2021/01/21 04:21:55;;;;;;;;;;;;;;;18.48;40.77;98232.84;3111231;27;114265;-68
2021/01/21 04:23:26;;;;;;;;;;;;;;;18.49;41.02;98222.47;3113245;27;114405;-68
2021/01/21 04:24:57;;;;;;;;;;;;;;;18.49;40.91;98228.88;3109872;27;114117;-68
2021/01/21 04:26:30;;;;;;;;;;;;;;;18.47;40.87;98236.81;3109811;28;114529;-68
2021/01/21 04:28:03;;;;;;;;;;;;;;;18.48;40.84;98237.63;3108872;27;115232;-68
2021/01/21 04:29:34;;;;;;;;;;;;;;;18.47;40.72;98228.44;3110210;27;114362;-67
2021/01/21 04:31:06;;;;;;;;;;;;;;;18.47;40.92;98230.41;3104537;28;115264;-67
2021/01/21 04:32:37;;;;;;;;;;;;;;;18.45;41.00;98229.94;3105770;28;114177;-67
2021/01/21 04:34:11;;;;;;;;;;;;;;;18.44;40.96;98240.31;3110326;27;114525;-69
2021/01/21 04:35:42;;;;;;;;;;;;;;;18.41;41.14;98231.84;3090123;28;115279;-69
2021/01/21 04:37:13;;;;;;;;;;;;;;;18.41;40.96;98238.25;3099494;27;113775;-69
2021/01/21 04:38:44;;;;;;;;;;;;;;;18.41;40.84;98245.81;3111583;28;114342;-69
2021/01/21 04:40:15;;;;;;;;;;;;;;;18.39;41.09;98256.56;3102422;27;115179;-70
2021/01/21 04:41:46;;;;;;;;;;;;;;;18.39;40.76;98256.56;3103732;28;115355;-66
2021/01/21 04:43:18;;;;;;;;;;;;;;;18.39;40.97;98248.19;3101655;27;115782;-66
2021/01/21 04:44:49;;;;;;;;;;;;;;;18.38;40.91;98258.53;3109394;27;115439;-66
2021/01/21 04:46:20;;;;;;;;;;;;;;;18.39;40.89;98262.97;3110359;28;115869;-74
2021/01/21 04:47:52;;;;;;;;;;;;;;;18.37;40.91;98264.47;3110685;28;116006;-74
2021/01/21 04:49:25;;;;;;;;;;;;;;;18.36;40.95;98268.44;3109962;27;115680;-68
2021/01/21 04:50:57;;;;;;;;;;;;;;;18.35;41.03;98278.81;3109016;27;114559;-69
2021/01/21 04:52:33;;;;;;;;;;;;;;;18.32;41.24;98264.75;3104052;28;116047;-68
2021/01/21 04:54:05;;;;;;;;;;;;;;;18.35;41.04;98272.44;3103326;28;114681;-68
2021/01/21 04:55:41;;;;;;;;;;;;;;;18.33;41.00;98274.75;3108660;28;114879;-69
2021/01/21 04:57:14;;;;;;;;;;;;;;;18.33;41.01;98280.34;3099487;27;115812;-68
2021/01/21 04:58:50;;;;;;;;;;;;;;;18.31;41.05;98269.53;3105081;27;114661;-69
2021/01/21 05:00:22;;;;;;;;;;;;;;;18.31;40.96;98265.91;3105306;28;115806;-69
2021/01/21 05:01:54;;;;;;;;;;;;;;;18.30;41.12;98278.28;3091968;28;114901;-69
2021/01/21 05:03:26;;;;;;;;;;;;;;;18.28;40.92;98277.81;3101190;28;114552;-68
2021/01/21 05:04:58;;;;;;;;;;;;;;;18.28;40.97;98280.63;3104695;28;114909;-68
2021/01/21 05:06:31;;;;;;;;;;;;;;;18.26;41.16;98280.97;3113907;27;116521;-56
2021/01/21 05:08:04;;;;;;;;;;;;;;;18.28;41.15;98283.41;3086858;28;113839;-57
2021/01/21 05:09:36;;;;;;;;;;;;;;;18.28;41.21;98283.41;3092964;27;114293;-55
2021/01/21 05:11:07;;;;;;;;;;;;;;;18.28;41.09;98289.00;3101282;28;114219;-55
2021/01/21 05:12:38;;;;;;;;;;;;;;;18.28;41.18;98284.22;3104374;27;114289;-55
2021/01/21 05:14:10;;;;;;;;;;;;;;;18.31;41.16;98272.31;3104133;28;114460;-55
2021/01/21 05:15:41;;;;;;;;;;;;;;;18.35;41.38;98287.19;3092066;28;114144;-55
2021/01/21 05:17:14;;;;;;;;;;;;;;;18.41;41.55;98290.53;3095369;27;114092;-55
2021/01/21 05:18:45;;;;;;;;;;;;;;;18.45;41.31;98299.84;3095774;28;114099;-56
2021/01/21 05:20:21;;;;;;;;;;;;;;;18.49;41.52;98298.75;3093294;27;114000;-56
2021/01/21 05:21:53;;;;;;;;;;;;;;;18.53;41.68;98301.69;3119993;27;113725;-55
2021/01/21 05:23:24;;;;;;;;;;;;;;;18.57;41.81;98305.41;3099812;27;114359;-55
2021/01/21 05:24:55;;;;;;;;;;;;;;;18.61;41.74;98298.72;3107330;27;114381;-55
2021/01/21 05:26:27;;;;;;;;;;;;;;;18.67;41.67;98302.03;3099093;27;114159;-54
2021/01/21 05:28:06;;;;;;;;;;;;;;;18.72;41.66;98300.97;3100055;28;114065;-56
2021/01/21 05:29:37;;;;;;;;;;;;;;;18.78;41.60;98302.31;3103648;27;114101;-55
2021/01/21 05:31:09;;;;;;;;;;;;;;;18.83;41.67;98307.66;3098916;28;115400;-55
2021/01/21 05:32:41;;;;;;;;;;;;;;;18.89;41.70;98314.63;3105324;27;115088;-55
2021/01/21 05:34:16;;;;;;;;;;;;;;;18.95;41.74;98325.16;3104081;28;115163;-55
2021/01/21 05:35:51;;;;;;;;;;;;;;;19.00;41.65;98324.88;3095409;28;115500;-55
2021/01/21 05:37:23;;;;;;;;;;;;;;;19.06;41.21;98326.25;3107306;28;114249;-55
2021/01/21 05:38:57;;;;;;;;;;;;;;;19.13;41.18;98330.38;3108551;28;115521;-54
2021/01/21 05:40:29;;;;;;;;;;;;;;;19.17;40.94;98334.88;3097811;28;115665;-54
2021/01/21 05:42:01;;;;;;;;;;;;;;;19.23;40.86;98325.03;3111120;28;114786;-55
2021/01/21 05:43:34;;;;;;;;;;;;;;;19.29;40.59;98336.78;3099178;28;115264;-71
2021/01/21 05:45:06;;;;;;;;;;;;;;;19.34;40.89;98339.31;3108481;28;114170;-72
2021/01/21 05:46:37;;;;;;;;;;;;;;;19.40;40.81;98349.84;3098961;27;114139;-71
2021/01/21 05:48:10;;;;;;;;;;;;;;;19.45;40.77;98354.38;3097033;27;115395;-73
2021/01/21 05:49:41;;;;;;;;;;;;;;;19.49;40.86;98349.66;3098240;27;115110;-72
2021/01/21 05:51:13;;;;;;;;;;;;;;;19.54;40.37;98349.38;3102694;28;115191;-71
2021/01/21 05:52:44;;;;;;;;;;;;;;;19.58;40.64;98336.28;3102752;28;117077;-68
2021/01/21 05:54:16;;;;;;;;;;;;;;;19.64;40.35;98348.81;3112710;27;114828;-68
2021/01/21 05:55:48;;;;;;;;;;;;;;;19.69;40.26;98337.34;3107062;27;114467;-68
2021/01/21 05:57:19;;;;;;;;;;;;;;;19.74;40.29;98350.25;3111266;28;114641;-69
2021/01/21 05:58:53;;;;;;;;;;;;;;;19.76;40.28;98323.47;3110195;28;115309;-68
2021/01/21 06:00:25;;;;;;;;;;;;;;;19.82;40.08;98326.81;3107118;28;114804;-73
2021/01/21 06:01:56;;;;;;;;;;;;;;;19.87;40.87;98323.72;3097396;28;114619;-68
2021/01/21 06:03:29;;;;;;;;;;;;;;;19.91;39.99;98324.59;3096079;28;115802;-69
2021/01/21 06:05:00;;;;;;;;;;;;;;;19.94;39.92;98333.06;3105269;27;114679;-72
2021/01/21 06:06:37;;;;;;;;;;;;;;;19.99;40.14;98327.19;3110233;27;116379;-71
2021/01/21 06:08:11;;;;;;;;;;;;;;;20.04;40.74;98322.44;3097386;28;116479;-71
2021/01/21 06:09:42;;;;;;;;;;;;;;;20.09;40.28;98316.56;3105014;28;114884;-70
2021/01/21 06:11:13;;;;;;;;;;;;;;;20.14;39.87;98317.06;3099214;28;115977;-71
2021/01/21 06:12:45;;;;;;;;;;;;;;;20.18;39.74;98328.34;3101252;27;116089;-65
2021/01/21 06:14:21;;;;;;;;;;;;;;;20.22;39.53;98320.81;3110259;28;113788;-71
2021/01/21 06:15:53;;;;;;;;;;;;;;;20.25;39.42;98320.91;3097532;28;113947;-70
2021/01/21 06:17:25;;;;;;;;;;;;;;;20.29;39.67;98320.97;3095622;28;113671;-67
2021/01/21 06:18:56;;;;;;;;;;;;;;;20.33;39.35;98324.69;3105744;27;113931;-67
2021/01/21 06:20:27;;;;;;;;;;;;;;;20.36;39.04;98326.75;3096682;28;113874;-69
2021/01/21 06:22:06;;;;;;;;;;;;;;;20.38;39.09;98330.81;3104818;28;114240;-68
2021/01/21 06:23:42;;;;;;;;;;;;;;;20.42;38.89;98337.31;3105814;28;113777;-69
2021/01/21 06:25:15;;;;;;;;;;;;;;;20.46;39.12;98330.94;3086964;28;115008;-68
2021/01/21 06:26:47;;;;;;;;;;;;;;;20.49;38.96;98325.38;3104053;27;114173;-70
2021/01/21 06:28:20;;;;;;;;;;;;;;;20.53;39.64;98331.91;3108039;27;113752;-70
2021/01/21 06:29:52;;;;;;;;;;;;;;;20.57;39.55;98337.56;3098167;27;113831;-70
2021/01/21 06:31:24;;;;;;;;;;;;;;;20.60;39.43;98340.44;3109137;28;113887;-69
2021/01/21 06:32:58;;;;;;;;;;;;;;;20.63;39.29;98342.50;3107200;28;113948;-68
2021/01/21 06:34:31;;;;;;;;;;;;;;;20.65;39.11;98345.75;3095868;28;113975;-68
2021/01/21 06:36:03;;;;;;;;;;;;;;;20.68;38.93;98353.41;3105813;28;114209;-55
2021/01/21 06:37:37;;;;;;;;;;;;;;;20.70;38.65;98353.88;3100375;28;114156;-55
2021/01/21 06:39:09;;;;;;;;;;;;;;;20.74;39.26;98353.91;3101405;28;115160;-54
2021/01/21 06:40:43;;;;;;;;;;;;;;;20.77;38.93;98348.38;3094836;27;113999;-55
2021/01/21 06:42:18;;;;;;;;;;;;;;;20.79;38.63;98346.00;3089447;28;114495;-55
2021/01/21 06:43:49;;;;;;;;;;;;;;;20.82;38.26;98350.06;3091715;28;114090;-55
2021/01/21 06:45:20;;;;;;;;;;;;;;;20.83;38.12;98349.69;3092757;28;115658;-55
2021/01/21 06:46:55;;;;;;;;;;;;;;;20.88;38.34;98348.56;3107246;27;114275;-55
2021/01/21 06:48:27;;;;;;;;;;;;;;;20.90;38.02;98353.78;3097104;27;114997;-55
2021/01/21 06:49:59;;;;;;;;;;;;;;;20.92;38.13;98352.25;3097677;28;115392;-54
2021/01/21 06:51:30;;;;;;;;;;;;;;;20.95;38.07;98362.72;3097984;28;115264;-55
2021/01/21 06:53:05;;;;;;;;;;;;;;;20.97;38.06;98371.59;3093055;28;114795;-55
2021/01/21 06:54:37;;;;;;;;;;;;;;;20.99;37.98;98369.19;3094993;28;115432;-54
2021/01/21 06:56:08;;;;;;;;;;;;;;;21.01;37.56;98371.66;3101024;28;118665;-54
2021/01/21 06:57:39;;;;;;;;;;;;;;;21.02;37.89;98367.66;3099292;27;114783;-54
2021/01/21 06:59:10;;;;;;;;;;;;;;;21.05;37.65;98361.28;3104386;27;116086;-55
2021/01/21 07:00:42;;;;;;;;;;;;;;;21.06;37.96;98368.53;3110771;27;114838;-54
2021/01/21 07:02:13;;;;;;;;;;;;;;;21.08;37.86;98364.16;3114471;27;115951;-54
2021/01/21 07:03:44;;;;;;;;;;;;;;;21.12;37.92;98367.03;3112366;28;115666;-59
2021/01/21 07:05:17;;;;;;;;;;;;;;;21.13;37.79;98368.66;3108671;28;115999;-54
2021/01/21 07:07:00;;;;;;;;;;;;;;;21.15;37.71;98364.31;3110778;28;115480;-54
2021/01/21 07:08:51;;;;;;;;;;;;;;;21.17;38.29;98378.78;3108621;28;114677;-54
2021/01/21 07:10:29;;;;;;;;;;;;;;;21.21;37.89;98370.44;3101209;28;115651;-55
2021/01/21 07:12:01;;;;;;;;;;;;;;;21.24;37.92;98364.06;3109537;28;115216;-54
2021/01/21 07:13:33;;;;;;;;;;;;;;;21.25;37.85;98368.50;3112831;28;115946;-54
2021/01/21 07:15:16;;;;;;;;;;;;;;;21.28;37.52;98362.94;3112403;28;114634;-54
2021/01/21 07:16:48;;;;;;;;;;;;;;;21.30;37.42;98366.16;3098841;28;115967;-55
2021/01/21 07:18:37;;;;;;;;;;;;;;;21.33;37.49;98375.84;3093399;28;115810;-55
2021/01/21 07:20:09;;;;;;;;;;;;;;;21.36;37.50;98374.25;3101261;28;114676;-55
2021/01/21 07:21:51;;;;;;;;;;;;;;;21.38;37.52;98364.28;3112207;28;114163;-54
2021/01/21 07:23:22;;;;;;;;;;;;;;;21.39;37.23;98371.53;3100218;28;114300;-54
2021/01/21 07:24:57;;;;;;;;;;;;;;;21.41;37.23;98357.09;3099227;28;113847;-55
2021/01/21 07:26:31;;;;;;;;;;;;;;;21.43;37.65;98358.34;3099765;27;114869;-54
2021/01/21 07:28:09;;;;;;;;;;;;;;;21.44;37.27;98354.31;3108854;28;114316;-54
2021/01/21 07:30:16;;;;;;;;;;;;;;;21.48;37.03;98362.84;3099653;28;114763;-54
2021/01/21 07:31:50;;;;;;;;;;;;;;;21.49;37.06;98370.06;3086140;28;114386;-54
2021/01/21 07:33:25;;;;;;;;;;;;;;;21.50;37.11;98366.88;3086252;28;114328;-54
2021/01/21 07:34:56;;;;;;;;;;;;;;;21.54;37.02;98372.53;3094049;28;116343;-54
2021/01/21 07:36:30;;;;;;;;;;;;;;;21.57;36.90;98377.44;3096313;28;113906;-55
2021/01/21 07:38:02;;;;;;;;;;;;;;;21.59;36.74;98380.66;3109518;28;114220;-54
2021/01/21 07:39:52;;;;;;;;;;;;;;;21.60;36.84;98388.72;3109905;27;114450;-55
2021/01/21 07:41:42;;;;;;;;;;;;;;;21.63;36.60;98389.94;3109272;27;114312;-54
2021/01/21 07:43:14;;;;;;;;;;;;;;;21.65;36.94;98390.38;3115684;27;113778;-54
2021/01/21 07:45:15;;;;;;;;;;;;;;;21.68;36.40;98395.25;3110020;27;114203;-55
2021/01/21 07:46:46;;;;;;;;;;;;;;;21.69;36.72;98389.25;3101349;28;115372;-57
2021/01/21 07:48:25;;;;;;;;;;;;;;;21.73;36.60;98395.75;3100177;27;114189;-55
2021/01/21 07:50:15;;;;;;;;;;;;;;;21.75;36.69;98395.38;3106500;28;115184;-55
2021/01/21 07:51:58;;;;;;;;;;;;;;;21.77;36.42;98384.53;3103957;27;115106;-55
2021/01/21 07:53:30;;;;;;;;;;;;;;;21.80;36.78;98391.41;3102540;28;115715;-55
2021/01/21 07:55:01;;;;;;;;;;;;;;;21.81;36.60;98393.03;3105242;27;115170;-55
2021/01/21 07:56:33;;;;;;;;;;;;;;;21.83;36.37;98394.28;3111128;28;116026;-55
2021/01/21 07:58:16;;;;;;;;;;;;;;;21.85;36.22;98383.44;3117242;27;115165;-55
2021/01/21 07:59:57;;;;;;;;;;;;;;;21.88;36.28;98393.13;3116359;27;115069;-55
2021/01/21 08:01:28;;;;;;;;;;;;;;;21.92;36.21;98397.63;3104392;28;114540;-71
2021/01/21 08:03:00;;;;;;;;;;;;;;;21.93;36.41;98399.28;3106543;28;115209;-71
2021/01/21 08:04:31;;;;;;;;;;;;;;;21.94;36.63;98402.91;3100600;28;115232;-74
2021/01/21 08:06:07;;;;;;;;;;;;;;;21.96;36.89;98404.13;3115404;28;117018;-69
2021/01/21 08:07:46;;;;;;;;;;;;;;;21.99;36.96;98405.38;3101833;28;114678;-71
2021/01/21 08:09:21;;;;;;;;;;;;;;;22.00;37.18;98412.63;3099499;28;115897;-65
2021/01/21 08:10:59;;;;;;;;;;;;;;;22.02;36.90;98411.06;3099607;28;115525;-71
2021/01/21 08:12:31;;;;;;;;;;;;;;;22.11;37.05;98434.09;3104188;27;115870;-75
2021/01/21 08:14:02;;;;;;;;;;;;;;;22.02;35.97;98425.13;3104653;27;115669;-70